sensor_id;sensor_type;location;lat;lon;timestamp;temperature;humidity
13796;SHT30;40911;51.552;9.874;2023-12-07T00:00:55;2.08;96.65
13796;SHT30;40911;51.552;9.874;2023-12-07T00:03:17;2.07;96.67
13796;SHT30;40911;51.552;9.874;2023-12-07T00:05:38;2.06;96.68
13796;SHT30;40911;51.552;9.874;2023-12-07T00:08:00;2.06;96.75
13796;SHT30;40911;51.552;9.874;2023-12-07T00:10:21;2.04;96.74
13796;SHT30;40911;51.552;9.874;2023-12-07T00:12:43;2.06;96.75
13796;SHT30;40911;51.552;9.874;2023-12-07T00:15:07;2.03;96.78
13796;SHT30;40911;51.552;9.874;2023-12-07T00:17:29;2.08;96.87
13796;SHT30;40911;51.552;9.874;2023-12-07T00:19:50;2.06;96.77
13796;SHT30;40911;51.552;9.874;2023-12-07T00:22:14;2.04;96.83
13796;SHT30;40911;51.552;9.874;2023-12-07T00:24:35;2.03;96.86
13796;SHT30;40911;51.552;9.874;2023-12-07T00:26:57;2.00;96.93
13796;SHT30;40911;51.552;9.874;2023-12-07T00:29:18;2.01;96.80
13796;SHT30;40911;51.552;9.874;2023-12-07T00:31:41;2.06;96.85
13796;SHT30;40911;51.552;9.874;2023-12-07T00:34:04;2.00;96.81
13796;SHT30;40911;51.552;9.874;2023-12-07T00:36:26;2.00;96.80
13796;SHT30;40911;51.552;9.874;2023-12-07T00:38:47;2.00;96.85
13796;SHT30;40911;51.552;9.874;2023-12-07T00:41:09;1.99;96.86
13796;SHT30;40911;51.552;9.874;2023-12-07T00:43:30;2.07;96.44
13796;SHT30;40911;51.552;9.874;2023-12-07T00:45:52;2.07;96.44
13796;SHT30;40911;51.552;9.874;2023-12-07T00:48:15;2.07;96.37
13796;SHT30;40911;51.552;9.874;2023-12-07T00:50:36;2.11;96.21
13796;SHT30;40911;51.552;9.874;2023-12-07T00:52:58;2.14;96.09
13796;SHT30;40911;51.552;9.874;2023-12-07T00:55:20;2.06;96.05
13796;SHT30;40911;51.552;9.874;2023-12-07T00:57:41;2.13;96.14
13796;SHT30;40911;51.552;9.874;2023-12-07T01:00:03;2.07;96.35
13796;SHT30;40911;51.552;9.874;2023-12-07T01:02:26;2.06;96.44
13796;SHT30;40911;51.552;9.874;2023-12-07T01:04:49;2.07;96.48
13796;SHT30;40911;51.552;9.874;2023-12-07T01:07:10;2.08;96.44
13796;SHT30;40911;51.552;9.874;2023-12-07T01:09:33;2.10;96.47
13796;SHT30;40911;51.552;9.874;2023-12-07T01:11:56;2.10;96.45
13796;SHT30;40911;51.552;9.874;2023-12-07T01:14:18;2.14;96.44
13796;SHT30;40911;51.552;9.874;2023-12-07T01:16:39;2.14;96.33
13796;SHT30;40911;51.552;9.874;2023-12-07T01:19:01;2.17;96.41
13796;SHT30;40911;51.552;9.874;2023-12-07T01:21:24;2.15;96.41
13796;SHT30;40911;51.552;9.874;2023-12-07T01:23:45;2.13;96.31
13796;SHT30;40911;51.552;9.874;2023-12-07T01:26:07;2.11;96.27
13796;SHT30;40911;51.552;9.874;2023-12-07T01:28:29;2.15;96.27
13796;SHT30;40911;51.552;9.874;2023-12-07T01:30:51;2.11;96.37
13796;SHT30;40911;51.552;9.874;2023-12-07T01:33:13;2.11;96.49
13796;SHT30;40911;51.552;9.874;2023-12-07T01:35:35;2.21;96.33
13796;SHT30;40911;51.552;9.874;2023-12-07T01:37:58;2.10;96.41
13796;SHT30;40911;51.552;9.874;2023-12-07T01:40:20;2.13;96.48
13796;SHT30;40911;51.552;9.874;2023-12-07T01:42:49;2.14;96.54
13796;SHT30;40911;51.552;9.874;2023-12-07T01:45:10;2.10;96.48
13796;SHT30;40911;51.552;9.874;2023-12-07T01:47:33;2.15;96.31
13796;SHT30;40911;51.552;9.874;2023-12-07T01:49:56;2.18;96.16
13796;SHT30;40911;51.552;9.874;2023-12-07T01:52:19;2.08;96.36
13796;SHT30;40911;51.552;9.874;2023-12-07T01:54:43;2.14;96.24
13796;SHT30;40911;51.552;9.874;2023-12-07T01:57:05;2.07;96.42
13796;SHT30;40911;51.552;9.874;2023-12-07T01:59:27;2.06;96.46
13796;SHT30;40911;51.552;9.874;2023-12-07T02:01:48;2.01;96.51
13796;SHT30;40911;51.552;9.874;2023-12-07T02:04:11;2.01;96.60
13796;SHT30;40911;51.552;9.874;2023-12-07T02:06:32;1.93;96.64
13796;SHT30;40911;51.552;9.874;2023-12-07T02:08:54;1.97;96.86
13796;SHT30;40911;51.552;9.874;2023-12-07T02:11:17;2.00;96.87
13796;SHT30;40911;51.552;9.874;2023-12-07T02:13:40;1.99;96.85
13796;SHT30;40911;51.552;9.874;2023-12-07T02:16:10;1.93;96.78
13796;SHT30;40911;51.552;9.874;2023-12-07T02:18:37;1.90;96.85
13796;SHT30;40911;51.552;9.874;2023-12-07T02:21:04;1.87;96.94
13796;SHT30;40911;51.552;9.874;2023-12-07T02:23:30;1.86;97.08
13796;SHT30;40911;51.552;9.874;2023-12-07T02:25:54;1.85;97.09
13796;SHT30;40911;51.552;9.874;2023-12-07T02:28:17;1.82;97.16
13796;SHT30;40911;51.552;9.874;2023-12-07T02:30:38;1.87;97.06
13796;SHT30;40911;51.552;9.874;2023-12-07T02:33:00;1.87;97.03
13796;SHT30;40911;51.552;9.874;2023-12-07T02:35:23;1.87;96.98
13796;SHT30;40911;51.552;9.874;2023-12-07T02:37:48;1.87;96.96
13796;SHT30;40911;51.552;9.874;2023-12-07T02:40:11;1.79;97.04
13796;SHT30;40911;51.552;9.874;2023-12-07T02:42:35;1.79;97.16
13796;SHT30;40911;51.552;9.874;2023-12-07T02:44:58;1.76;97.27
13796;SHT30;40911;51.552;9.874;2023-12-07T02:47:20;1.73;97.37
13796;SHT30;40911;51.552;9.874;2023-12-07T02:49:42;1.82;97.43
13796;SHT30;40911;51.552;9.874;2023-12-07T02:52:04;1.78;97.21
13796;SHT30;40911;51.552;9.874;2023-12-07T02:54:25;1.72;97.39
13796;SHT30;40911;51.552;9.874;2023-12-07T02:56:48;1.70;97.47
13796;SHT30;40911;51.552;9.874;2023-12-07T02:59:09;1.68;97.70
13796;SHT30;40911;51.552;9.874;2023-12-07T03:01:32;1.72;97.72
13796;SHT30;40911;51.552;9.874;2023-12-07T03:03:54;1.75;97.71
13796;SHT30;40911;51.552;9.874;2023-12-07T03:06:15;1.79;97.68
13796;SHT30;40911;51.552;9.874;2023-12-07T03:08:37;1.85;97.39
13796;SHT30;40911;51.552;9.874;2023-12-07T03:10:58;1.85;97.37
13796;SHT30;40911;51.552;9.874;2023-12-07T03:13:20;1.86;97.38
13796;SHT30;40911;51.552;9.874;2023-12-07T03:15:41;1.80;97.53
13796;SHT30;40911;51.552;9.874;2023-12-07T03:18:04;1.85;97.53
13796;SHT30;40911;51.552;9.874;2023-12-07T03:20:27;1.79;97.55
13796;SHT30;40911;51.552;9.874;2023-12-07T03:22:49;1.90;97.47
13796;SHT30;40911;51.552;9.874;2023-12-07T03:25:10;1.89;97.40
13796;SHT30;40911;51.552;9.874;2023-12-07T03:27:32;1.87;97.32
13796;SHT30;40911;51.552;9.874;2023-12-07T03:29:53;1.91;97.29
13796;SHT30;40911;51.552;9.874;2023-12-07T03:32:15;1.93;97.28
13796;SHT30;40911;51.552;9.874;2023-12-07T03:34:38;1.89;97.26
13796;SHT30;40911;51.552;9.874;2023-12-07T03:36:59;1.89;97.25
13796;SHT30;40911;51.552;9.874;2023-12-07T03:39:21;1.87;97.33
13796;SHT30;40911;51.552;9.874;2023-12-07T03:41:43;1.89;97.37
13796;SHT30;40911;51.552;9.874;2023-12-07T03:44:04;1.94;97.25
13796;SHT30;40911;51.552;9.874;2023-12-07T03:46:26;1.94;97.12
13796;SHT30;40911;51.552;9.874;2023-12-07T03:48:47;1.91;97.17
13796;SHT30;40911;51.552;9.874;2023-12-07T03:51:13;1.91;97.17
13796;SHT30;40911;51.552;9.874;2023-12-07T03:53:36;1.90;97.09
13796;SHT30;40911;51.552;9.874;2023-12-07T03:55:58;1.90;97.05
13796;SHT30;40911;51.552;9.874;2023-12-07T03:58:19;1.87;97.13
13796;SHT30;40911;51.552;9.874;2023-12-07T04:00:41;1.87;97.16
13796;SHT30;40911;51.552;9.874;2023-12-07T04:03:02;1.85;96.99
13796;SHT30;40911;51.552;9.874;2023-12-07T04:05:24;1.90;97.06
13796;SHT30;40911;51.552;9.874;2023-12-07T04:07:47;1.93;97.05
13796;SHT30;40911;51.552;9.874;2023-12-07T04:10:09;1.90;96.90
13796;SHT30;40911;51.552;9.874;2023-12-07T04:12:31;1.90;96.96
13796;SHT30;40911;51.552;9.874;2023-12-07T04:14:52;1.93;96.78
13796;SHT30;40911;51.552;9.874;2023-12-07T04:17:14;1.99;96.80
13796;SHT30;40911;51.552;9.874;2023-12-07T04:19:36;1.99;96.67
13796;SHT30;40911;51.552;9.874;2023-12-07T04:21:57;2.03;96.62
13796;SHT30;40911;51.552;9.874;2023-12-07T04:24:20;1.99;96.71
13796;SHT30;40911;51.552;9.874;2023-12-07T04:26:42;1.99;96.71
13796;SHT30;40911;51.552;9.874;2023-12-07T04:29:03;1.97;96.79
13796;SHT30;40911;51.552;9.874;2023-12-07T04:31:25;1.97;96.82
13796;SHT30;40911;51.552;9.874;2023-12-07T04:33:47;2.00;96.81
13796;SHT30;40911;51.552;9.874;2023-12-07T04:36:09;2.03;96.80
13796;SHT30;40911;51.552;9.874;2023-12-07T04:38:30;2.04;96.66
13796;SHT30;40911;51.552;9.874;2023-12-07T04:40:54;1.96;96.86
13796;SHT30;40911;51.552;9.874;2023-12-07T04:43:15;1.96;96.84
13796;SHT30;40911;51.552;9.874;2023-12-07T04:45:37;1.96;96.92
13796;SHT30;40911;51.552;9.874;2023-12-07T04:47:58;1.96;96.90
13796;SHT30;40911;51.552;9.874;2023-12-07T04:50:20;1.91;97.03
13796;SHT30;40911;51.552;9.874;2023-12-07T04:52:42;1.93;97.09
13796;SHT30;40911;51.552;9.874;2023-12-07T04:55:04;1.90;97.01
13796;SHT30;40911;51.552;9.874;2023-12-07T04:57:28;1.96;96.86
13796;SHT30;40911;51.552;9.874;2023-12-07T04:59:49;1.94;96.92
13796;SHT30;40911;51.552;9.874;2023-12-07T05:02:11;1.97;96.92
13796;SHT30;40911;51.552;9.874;2023-12-07T05:04:32;1.94;96.93
13796;SHT30;40911;51.552;9.874;2023-12-07T05:06:54;1.96;96.97
13796;SHT30;40911;51.552;9.874;2023-12-07T05:09:16;1.91;97.06
13796;SHT30;40911;51.552;9.874;2023-12-07T05:11:37;1.93;97.09
13796;SHT30;40911;51.552;9.874;2023-12-07T05:14:00;1.90;97.09
13796;SHT30;40911;51.552;9.874;2023-12-07T05:16:23;1.90;97.04
13796;SHT30;40911;51.552;9.874;2023-12-07T05:18:45;1.91;97.03
13796;SHT30;40911;51.552;9.874;2023-12-07T05:21:06;1.91;97.00
13796;SHT30;40911;51.552;9.874;2023-12-07T05:23:28;1.89;97.01
13796;SHT30;40911;51.552;9.874;2023-12-07T05:25:49;1.91;96.98
13796;SHT30;40911;51.552;9.874;2023-12-07T05:28:11;1.93;96.90
13796;SHT30;40911;51.552;9.874;2023-12-07T05:30:35;1.91;96.83
13796;SHT30;40911;51.552;9.874;2023-12-07T05:32:57;1.96;96.73
13796;SHT30;40911;51.552;9.874;2023-12-07T05:35:19;1.91;96.62
13796;SHT30;40911;51.552;9.874;2023-12-07T05:37:40;1.93;96.72
13796;SHT30;40911;51.552;9.874;2023-12-07T05:40:02;1.90;96.76
13796;SHT30;40911;51.552;9.874;2023-12-07T05:42:25;1.89;96.82
13796;SHT30;40911;51.552;9.874;2023-12-07T05:44:46;1.86;96.88
13796;SHT30;40911;51.552;9.874;2023-12-07T05:47:09;1.89;96.90
13796;SHT30;40911;51.552;9.874;2023-12-07T05:49:31;1.91;96.81
13796;SHT30;40911;51.552;9.874;2023-12-07T05:51:53;1.87;96.80
13796;SHT30;40911;51.552;9.874;2023-12-07T05:54:14;1.89;96.84
13796;SHT30;40911;51.552;9.874;2023-12-07T05:56:36;1.87;96.82
13796;SHT30;40911;51.552;9.874;2023-12-07T05:58:57;1.87;96.80
13796;SHT30;40911;51.552;9.874;2023-12-07T06:01:19;1.89;96.76
13796;SHT30;40911;51.552;9.874;2023-12-07T06:03:42;1.90;96.60
13796;SHT30;40911;51.552;9.874;2023-12-07T06:06:04;1.87;96.67
13796;SHT30;40911;51.552;9.874;2023-12-07T06:08:26;1.89;96.49
13796;SHT30;40911;51.552;9.874;2023-12-07T06:10:47;1.89;96.49
13796;SHT30;40911;51.552;9.874;2023-12-07T06:13:09;1.97;96.25
13796;SHT30;40911;51.552;9.874;2023-12-07T06:15:30;1.97;96.08
13796;SHT30;40911;51.552;9.874;2023-12-07T06:17:52;1.94;95.99
13796;SHT30;40911;51.552;9.874;2023-12-07T06:20:15;1.97;95.99
13796;SHT30;40911;51.552;9.874;2023-12-07T06:22:37;1.97;95.88
13796;SHT30;40911;51.552;9.874;2023-12-07T06:24:58;1.94;95.86
13796;SHT30;40911;51.552;9.874;2023-12-07T06:27:21;1.94;96.01
13796;SHT30;40911;51.552;9.874;2023-12-07T06:29:42;1.91;96.01
13796;SHT30;40911;51.552;9.874;2023-12-07T06:32:04;1.94;96.18
13796;SHT30;40911;51.552;9.874;2023-12-07T06:34:25;1.93;96.17
13796;SHT30;40911;51.552;9.874;2023-12-07T06:36:49;1.91;96.27
13796;SHT30;40911;51.552;9.874;2023-12-07T06:39:11;1.94;96.18
13796;SHT30;40911;51.552;9.874;2023-12-07T06:41:32;1.93;96.17
13796;SHT30;40911;51.552;9.874;2023-12-07T06:43:54;1.93;96.27
13796;SHT30;40911;51.552;9.874;2023-12-07T06:46:16;1.94;96.05
13796;SHT30;40911;51.552;9.874;2023-12-07T06:48:37;1.89;96.33
13796;SHT30;40911;51.552;9.874;2023-12-07T06:50:59;1.94;96.45
13796;SHT30;40911;51.552;9.874;2023-12-07T06:53:22;1.94;96.18
13796;SHT30;40911;51.552;9.874;2023-12-07T06:55:43;1.93;96.38
13796;SHT30;40911;51.552;9.874;2023-12-07T06:58:05;1.90;96.49
13796;SHT30;40911;51.552;9.874;2023-12-07T07:00:27;1.90;96.57
13796;SHT30;40911;51.552;9.874;2023-12-07T07:02:49;1.91;96.47
13796;SHT30;40911;51.552;9.874;2023-12-07T07:05:10;1.91;96.38
13796;SHT30;40911;51.552;9.874;2023-12-07T07:07:32;1.90;96.47
13796;SHT30;40911;51.552;9.874;2023-12-07T07:09:55;1.93;96.38
13796;SHT30;40911;51.552;9.874;2023-12-07T07:12:17;1.91;96.44
13796;SHT30;40911;51.552;9.874;2023-12-07T07:14:39;1.93;96.45
13796;SHT30;40911;51.552;9.874;2023-12-07T07:17:01;1.93;96.49
13796;SHT30;40911;51.552;9.874;2023-12-07T07:19:24;1.91;96.56
13796;SHT30;40911;51.552;9.874;2023-12-07T07:21:46;1.91;96.53
13796;SHT30;40911;51.552;9.874;2023-12-07T07:24:07;1.96;96.43
13796;SHT30;40911;51.552;9.874;2023-12-07T07:26:30;1.94;96.46
13796;SHT30;40911;51.552;9.874;2023-12-07T07:28:52;1.96;96.43
13796;SHT30;40911;51.552;9.874;2023-12-07T07:31:13;1.89;96.40
13796;SHT30;40911;51.552;9.874;2023-12-07T07:33:35;1.91;96.56
13796;SHT30;40911;51.552;9.874;2023-12-07T07:35:56;1.89;96.54
13796;SHT30;40911;51.552;9.874;2023-12-07T07:38:18;1.94;96.46
13796;SHT30;40911;51.552;9.874;2023-12-07T07:40:40;1.91;96.49
13796;SHT30;40911;51.552;9.874;2023-12-07T07:43:03;1.97;96.36
13796;SHT30;40911;51.552;9.874;2023-12-07T07:45:24;2.01;96.12
13796;SHT30;40911;51.552;9.874;2023-12-07T07:47:46;2.04;96.13
13796;SHT30;40911;51.552;9.874;2023-12-07T07:50:08;2.06;96.15
13796;SHT30;40911;51.552;9.874;2023-12-07T07:52:32;2.01;96.08
13796;SHT30;40911;51.552;9.874;2023-12-07T07:54:54;1.99;96.22
13796;SHT30;40911;51.552;9.874;2023-12-07T07:57:15;1.96;96.32
13796;SHT30;40911;51.552;9.874;2023-12-07T07:59:39;2.04;96.24
13796;SHT30;40911;51.552;9.874;2023-12-07T08:02:00;2.07;96.14
13796;SHT30;40911;51.552;9.874;2023-12-07T08:04:22;2.01;96.18
13796;SHT30;40911;51.552;9.874;2023-12-07T08:06:44;2.04;96.31
13796;SHT30;40911;51.552;9.874;2023-12-07T08:09:07;2.04;96.35
13796;SHT30;40911;51.552;9.874;2023-12-07T08:11:29;2.07;96.30
13796;SHT30;40911;51.552;9.874;2023-12-07T08:13:49;2.11;96.21
13796;SHT30;40911;51.552;9.874;2023-12-07T08:16:13;2.04;96.34
13796;SHT30;40911;51.552;9.874;2023-12-07T08:18:35;2.18;96.35
13796;SHT30;40911;51.552;9.874;2023-12-07T08:20:57;2.15;96.26
13796;SHT30;40911;51.552;9.874;2023-12-07T08:23:19;2.20;96.07
13796;SHT30;40911;51.552;9.874;2023-12-07T08:25:41;2.22;96.12
13796;SHT30;40911;51.552;9.874;2023-12-07T08:28:03;2.24;95.93
13796;SHT30;40911;51.552;9.874;2023-12-07T08:30:25;2.33;95.74
13796;SHT30;40911;51.552;9.874;2023-12-07T08:32:48;2.28;95.78
13796;SHT30;40911;51.552;9.874;2023-12-07T08:35:10;2.28;95.83
13796;SHT30;40911;51.552;9.874;2023-12-07T08:37:31;2.26;95.90
13796;SHT30;40911;51.552;9.874;2023-12-07T08:39:53;2.28;96.06
13796;SHT30;40911;51.552;9.874;2023-12-07T08:42:14;2.31;96.07
13796;SHT30;40911;51.552;9.874;2023-12-07T08:44:36;2.28;96.05
13796;SHT30;40911;51.552;9.874;2023-12-07T08:46:58;2.33;96.16
13796;SHT30;40911;51.552;9.874;2023-12-07T08:49:21;2.31;96.08
13796;SHT30;40911;51.552;9.874;2023-12-07T08:51:42;2.35;95.93
13796;SHT30;40911;51.552;9.874;2023-12-07T08:54:05;2.35;95.86
13796;SHT30;40911;51.552;9.874;2023-12-07T08:56:26;2.37;95.78
13796;SHT30;40911;51.552;9.874;2023-12-07T08:58:48;2.40;95.92
13796;SHT30;40911;51.552;9.874;2023-12-07T09:01:10;2.44;95.84
13796;SHT30;40911;51.552;9.874;2023-12-07T09:03:32;2.40;96.22
13796;SHT30;40911;51.552;9.874;2023-12-07T09:05:55;2.48;96.12
13796;SHT30;40911;51.552;9.874;2023-12-07T09:08:17;2.51;95.89
13796;SHT30;40911;51.552;9.874;2023-12-07T09:10:39;2.52;96.14
13796;SHT30;40911;51.552;9.874;2023-12-07T09:13:00;2.54;96.30
13796;SHT30;40911;51.552;9.874;2023-12-07T09:15:22;2.51;96.34
13796;SHT30;40911;51.552;9.874;2023-12-07T09:17:44;2.49;96.45
13796;SHT30;40911;51.552;9.874;2023-12-07T09:20:07;2.48;96.69
13796;SHT30;40911;51.552;9.874;2023-12-07T09:22:33;2.47;96.79
13796;SHT30;40911;51.552;9.874;2023-12-07T09:24:55;2.48;96.83
13796;SHT30;40911;51.552;9.874;2023-12-07T09:27:17;2.51;96.70
13796;SHT30;40911;51.552;9.874;2023-12-07T09:29:38;2.52;96.55
13796;SHT30;40911;51.552;9.874;2023-12-07T09:32:00;2.52;96.54
13796;SHT30;40911;51.552;9.874;2023-12-07T09:34:21;2.55;96.59
13796;SHT30;40911;51.552;9.874;2023-12-07T09:36:44;2.56;96.70
13796;SHT30;40911;51.552;9.874;2023-12-07T09:39:07;2.55;96.61
13796;SHT30;40911;51.552;9.874;2023-12-07T09:41:30;2.62;96.68
13796;SHT30;40911;51.552;9.874;2023-12-07T09:43:51;2.61;96.82
13796;SHT30;40911;51.552;9.874;2023-12-07T09:46:14;2.61;96.65
13796;SHT30;40911;51.552;9.874;2023-12-07T09:48:36;2.62;96.50
13796;SHT30;40911;51.552;9.874;2023-12-07T09:50:59;2.69;96.32
13796;SHT30;40911;51.552;9.874;2023-12-07T09:53:21;2.65;96.39
13796;SHT30;40911;51.552;9.874;2023-12-07T09:55:44;2.73;96.43
13796;SHT30;40911;51.552;9.874;2023-12-07T09:58:07;2.73;96.56
13796;SHT30;40911;51.552;9.874;2023-12-07T10:00:29;2.80;96.51
13796;SHT30;40911;51.552;9.874;2023-12-07T10:02:51;2.85;96.38
13796;SHT30;40911;51.552;9.874;2023-12-07T10:05:13;2.86;96.46
13796;SHT30;40911;51.552;9.874;2023-12-07T10:07:39;2.85;96.41
13796;SHT30;40911;51.552;9.874;2023-12-07T10:10:00;2.94;96.41
13796;SHT30;40911;51.552;9.874;2023-12-07T10:12:24;2.93;95.85
13796;SHT30;40911;51.552;9.874;2023-12-07T10:14:46;2.90;95.85
13796;SHT30;40911;51.552;9.874;2023-12-07T10:17:08;2.97;96.15
13796;SHT30;40911;51.552;9.874;2023-12-07T10:19:29;2.96;95.99
13796;SHT30;40911;51.552;9.874;2023-12-07T10:21:51;3.00;95.85
13796;SHT30;40911;51.552;9.874;2023-12-07T10:24:13;3.04;95.84
13796;SHT30;40911;51.552;9.874;2023-12-07T10:26:37;2.97;95.34
13796;SHT30;40911;51.552;9.874;2023-12-07T10:29:01;2.99;95.75
13796;SHT30;40911;51.552;9.874;2023-12-07T10:31:23;3.01;95.04
13796;SHT30;40911;51.552;9.874;2023-12-07T10:33:47;2.92;95.44
13796;SHT30;40911;51.552;9.874;2023-12-07T10:36:09;2.93;95.08
13796;SHT30;40911;51.552;9.874;2023-12-07T10:38:31;3.00;94.90
13796;SHT30;40911;51.552;9.874;2023-12-07T10:40:59;3.01;95.15
13796;SHT30;40911;51.552;9.874;2023-12-07T10:43:24;2.97;94.98
13796;SHT30;40911;51.552;9.874;2023-12-07T10:45:47;2.97;95.28
13796;SHT30;40911;51.552;9.874;2023-12-07T10:48:09;3.01;94.97
13796;SHT30;40911;51.552;9.874;2023-12-07T10:50:34;3.03;94.97
13796;SHT30;40911;51.552;9.874;2023-12-07T10:52:57;2.97;94.99
13796;SHT30;40911;51.552;9.874;2023-12-07T10:55:21;3.00;95.14
13796;SHT30;40911;51.552;9.874;2023-12-07T10:57:44;3.00;95.27
13796;SHT30;40911;51.552;9.874;2023-12-07T11:00:07;2.99;94.83
13796;SHT30;40911;51.552;9.874;2023-12-07T11:02:32;3.00;94.96
13796;SHT30;40911;51.552;9.874;2023-12-07T11:04:56;3.06;94.70
13796;SHT30;40911;51.552;9.874;2023-12-07T11:07:21;3.04;94.60
13796;SHT30;40911;51.552;9.874;2023-12-07T11:09:49;3.06;94.12
13796;SHT30;40911;51.552;9.874;2023-12-07T11:12:18;3.03;94.00
13796;SHT30;40911;51.552;9.874;2023-12-07T11:14:42;3.00;94.09
13796;SHT30;40911;51.552;9.874;2023-12-07T11:17:03;3.08;94.19
13796;SHT30;40911;51.552;9.874;2023-12-07T11:19:46;3.00;94.24
13796;SHT30;40911;51.552;9.874;2023-12-07T11:22:11;3.06;94.04
13796;SHT30;40911;51.552;9.874;2023-12-07T11:24:33;3.04;93.59
13796;SHT30;40911;51.552;9.874;2023-12-07T11:26:56;3.07;92.87
13796;SHT30;40911;51.552;9.874;2023-12-07T11:29:19;3.11;92.00
13796;SHT30;40911;51.552;9.874;2023-12-07T11:31:41;3.15;92.46
13796;SHT30;40911;51.552;9.874;2023-12-07T11:34:05;3.15;92.02
13796;SHT30;40911;51.552;9.874;2023-12-07T11:36:29;3.25;92.00
13796;SHT30;40911;51.552;9.874;2023-12-07T11:39:15;3.24;92.42
13796;SHT30;40911;51.552;9.874;2023-12-07T11:41:43;3.20;92.72
13796;SHT30;40911;51.552;9.874;2023-12-07T11:44:04;3.20;92.02
13796;SHT30;40911;51.552;9.874;2023-12-07T11:46:26;3.28;92.12
13796;SHT30;40911;51.552;9.874;2023-12-07T11:48:47;3.32;92.23
13796;SHT30;40911;51.552;9.874;2023-12-07T11:51:09;3.31;91.87
13796;SHT30;40911;51.552;9.874;2023-12-07T11:53:34;3.35;91.24
13796;SHT30;40911;51.552;9.874;2023-12-07T11:55:57;3.35;91.60
13796;SHT30;40911;51.552;9.874;2023-12-07T11:58:17;3.47;92.29
13796;SHT30;40911;51.552;9.874;2023-12-07T12:00:39;3.45;92.20
13796;SHT30;40911;51.552;9.874;2023-12-07T12:03:01;3.62;91.51
13796;SHT30;40911;51.552;9.874;2023-12-07T12:05:22;3.51;90.08
13796;SHT30;40911;51.552;9.874;2023-12-07T12:07:44;3.61;90.01
13796;SHT30;40911;51.552;9.874;2023-12-07T12:10:07;3.78;89.64
13796;SHT30;40911;51.552;9.874;2023-12-07T12:12:29;3.87;90.75
13796;SHT30;40911;51.552;9.874;2023-12-07T12:14:54;3.85;90.20
13796;SHT30;40911;51.552;9.874;2023-12-07T12:17:15;3.78;89.99
13796;SHT30;40911;51.552;9.874;2023-12-07T12:19:38;3.79;88.99
13796;SHT30;40911;51.552;9.874;2023-12-07T12:22:01;3.86;89.08
13796;SHT30;40911;51.552;9.874;2023-12-07T12:24:22;3.86;89.86
13796;SHT30;40911;51.552;9.874;2023-12-07T12:26:46;3.80;89.12
13796;SHT30;40911;51.552;9.874;2023-12-07T12:29:08;3.79;89.53
13796;SHT30;40911;51.552;9.874;2023-12-07T12:31:29;3.79;89.50
13796;SHT30;40911;51.552;9.874;2023-12-07T12:33:50;3.79;88.62
13796;SHT30;40911;51.552;9.874;2023-12-07T12:36:12;3.71;89.62
13796;SHT30;40911;51.552;9.874;2023-12-07T12:38:33;3.62;89.40
13796;SHT30;40911;51.552;9.874;2023-12-07T12:40:55;3.59;89.61
13796;SHT30;40911;51.552;9.874;2023-12-07T12:43:18;3.52;89.99
13796;SHT30;40911;51.552;9.874;2023-12-07T12:45:40;3.55;89.37
13796;SHT30;40911;51.552;9.874;2023-12-07T12:48:01;3.52;89.28
13796;SHT30;40911;51.552;9.874;2023-12-07T12:50:33;3.54;89.64
13796;SHT30;40911;51.552;9.874;2023-12-07T12:52:57;3.59;88.62
13796;SHT30;40911;51.552;9.874;2023-12-07T12:55:19;3.47;89.26
13796;SHT30;40911;51.552;9.874;2023-12-07T12:57:40;3.54;88.61
13796;SHT30;40911;51.552;9.874;2023-12-07T13:00:04;3.52;88.58
13796;SHT30;40911;51.552;9.874;2023-12-07T13:02:27;3.61;88.24
13796;SHT30;40911;51.552;9.874;2023-12-07T13:04:48;3.69;86.96
13796;SHT30;40911;51.552;9.874;2023-12-07T13:07:11;3.54;88.56
13796;SHT30;40911;51.552;9.874;2023-12-07T13:09:33;3.51;88.56
13796;SHT30;40911;51.552;9.874;2023-12-07T13:11:55;3.51;88.61
13796;SHT30;40911;51.552;9.874;2023-12-07T13:14:16;3.47;88.79
13796;SHT30;40911;51.552;9.874;2023-12-07T13:16:39;3.50;88.84
13796;SHT30;40911;51.552;9.874;2023-12-07T13:19:01;3.76;88.31
13796;SHT30;40911;51.552;9.874;2023-12-07T13:21:23;3.54;88.84
13796;SHT30;40911;51.552;9.874;2023-12-07T13:23:44;3.55;88.58
13796;SHT30;40911;51.552;9.874;2023-12-07T13:26:06;3.56;88.18
13796;SHT30;40911;51.552;9.874;2023-12-07T13:28:29;3.66;87.78
13796;SHT30;40911;51.552;9.874;2023-12-07T13:30:50;3.68;87.35
13796;SHT30;40911;51.552;9.874;2023-12-07T13:33:15;3.71;87.59
13796;SHT30;40911;51.552;9.874;2023-12-07T13:35:37;3.80;88.54
13796;SHT30;40911;51.552;9.874;2023-12-07T13:37:58;3.97;87.12
13796;SHT30;40911;51.552;9.874;2023-12-07T13:40:20;3.89;87.60
13796;SHT30;40911;51.552;9.874;2023-12-07T13:42:42;3.93;87.19
13796;SHT30;40911;51.552;9.874;2023-12-07T13:45:04;3.92;86.96
13796;SHT30;40911;51.552;9.874;2023-12-07T13:47:28;3.90;87.46
13796;SHT30;40911;51.552;9.874;2023-12-07T13:49:53;3.80;87.13
13796;SHT30;40911;51.552;9.874;2023-12-07T13:52:14;3.76;87.31
13796;SHT30;40911;51.552;9.874;2023-12-07T13:54:38;3.75;88.10
13796;SHT30;40911;51.552;9.874;2023-12-07T13:57:00;3.63;88.78
13796;SHT30;40911;51.552;9.874;2023-12-07T13:59:23;3.62;88.73
13796;SHT30;40911;51.552;9.874;2023-12-07T14:01:46;3.63;88.53
13796;SHT30;40911;51.552;9.874;2023-12-07T14:04:07;3.63;88.39
13796;SHT30;40911;51.552;9.874;2023-12-07T14:06:30;3.44;89.11
13796;SHT30;40911;51.552;9.874;2023-12-07T14:08:53;3.38;88.37
13796;SHT30;40911;51.552;9.874;2023-12-07T14:11:15;3.38;87.80
13796;SHT30;40911;51.552;9.874;2023-12-07T14:13:36;3.27;87.61
13796;SHT30;40911;51.552;9.874;2023-12-07T14:15:58;3.24;86.84
13796;SHT30;40911;51.552;9.874;2023-12-07T14:18:19;3.21;86.35
13796;SHT30;40911;51.552;9.874;2023-12-07T14:20:41;3.03;87.70
13796;SHT30;40911;51.552;9.874;2023-12-07T14:23:06;2.94;87.99
13796;SHT30;40911;51.552;9.874;2023-12-07T14:25:29;2.90;88.21
13796;SHT30;40911;51.552;9.874;2023-12-07T14:27:51;2.83;88.25
13796;SHT30;40911;51.552;9.874;2023-12-07T14:30:13;2.72;88.57
13796;SHT30;40911;51.552;9.874;2023-12-07T14:32:36;2.65;88.87
13796;SHT30;40911;51.552;9.874;2023-12-07T14:34:58;2.64;88.79
13796;SHT30;40911;51.552;9.874;2023-12-07T14:37:20;2.49;89.48
13796;SHT30;40911;51.552;9.874;2023-12-07T14:39:43;2.44;89.79
13796;SHT30;40911;51.552;9.874;2023-12-07T14:42:05;2.35;90.47
13796;SHT30;40911;51.552;9.874;2023-12-07T14:44:26;2.35;90.13
13796;SHT30;40911;51.552;9.874;2023-12-07T14:46:49;2.26;89.92
13796;SHT30;40911;51.552;9.874;2023-12-07T14:49:11;2.15;90.52
13796;SHT30;40911;51.552;9.874;2023-12-07T14:51:33;2.17;90.48
13796;SHT30;40911;51.552;9.874;2023-12-07T14:53:55;2.18;90.30
13796;SHT30;40911;51.552;9.874;2023-12-07T14:56:19;2.11;90.53
13796;SHT30;40911;51.552;9.874;2023-12-07T14:58:42;2.00;90.87
13796;SHT30;40911;51.552;9.874;2023-12-07T15:01:03;2.00;91.34
13796;SHT30;40911;51.552;9.874;2023-12-07T15:03:25;1.97;91.16
13796;SHT30;40911;51.552;9.874;2023-12-07T15:05:47;1.86;91.90
13796;SHT30;40911;51.552;9.874;2023-12-07T15:08:08;1.82;92.09
13796;SHT30;40911;51.552;9.874;2023-12-07T15:10:31;1.73;92.33
13796;SHT30;40911;51.552;9.874;2023-12-07T15:12:54;1.63;92.70